sensor_id;sensor_type;location;lat;lon;timestamp;pressure;altitude;pressure_sealevel;temperature;humidity
1694;BME280;71975;47.068;15.408;2024-03-08T07:01:38;97584.06;;;8.62;65.63
1694;BME280;71975;47.068;15.408;2024-03-08T07:06:41;97594.44;;;8.75;64.89
1694;BME280;71975;47.068;15.408;2024-03-08T07:11:44;97594.84;;;8.77;64.44
1694;BME280;71975;47.068;15.408;2024-03-08T07:16:50;97587.72;;;9.35;62.10
1694;BME280;71975;47.068;15.408;2024-03-08T07:21:53;97588.81;;;9.49;60.83
1694;BME280;71975;47.068;15.408;2024-03-08T07:26:56;97586.91;;;9.46;61.05
1694;BME280;71975;47.068;15.408;2024-03-08T07:32:01;97592.59;;;9.62;59.03
1694;BME280;71975;47.068;15.408;2024-03-08T07:37:14;97587.25;;;10.20;57.57
1694;BME280;71975;47.068;15.408;2024-03-08T07:42:17;97587.59;;;10.70;55.78
1694;BME280;71975;47.068;15.408;2024-03-08T07:47:21;97587.38;;;9.95;57.12
1694;BME280;71975;47.068;15.408;2024-03-08T07:52:26;97594.22;;;9.49;57.72
1694;BME280;71975;47.068;15.408;2024-03-08T07:57:28;97599.88;;;8.60;65.00
1694;BME280;71975;47.068;15.408;2024-03-08T08:02:33;97606.06;;;8.47;67.64
1694;BME280;71975;47.068;15.408;2024-03-08T08:07:44;97613.25;;;7.76;71.18
1694;BME280;71975;47.068;15.408;2024-03-08T08:12:50;97615.38;;;7.24;73.86
1694;BME280;71975;47.068;15.408;2024-03-08T08:17:55;97618.72;;;7.00;75.99
1694;BME280;71975;47.068;15.408;2024-03-08T08:22:58;97616.53;;;7.20;74.71
1694;BME280;71975;47.068;15.408;2024-03-08T08:28:01;97618.22;;;6.81;78.06
1694;BME280;71975;47.068;15.408;2024-03-08T08:33:07;97617.66;;;7.12;76.22
1694;BME280;71975;47.068;15.408;2024-03-08T08:38:10;97611.44;;;7.01;77.06
1694;BME280;71975;47.068;15.408;2024-03-08T08:43:14;97605.34;;;7.11;75.97
1694;BME280;71975;47.068;15.408;2024-03-08T08:48:19;97605.06;;;7.37;73.01
1694;BME280;71975;47.068;15.408;2024-03-08T08:53:22;97611.38;;;7.80;71.67
1694;BME280;71975;47.068;15.408;2024-03-08T08:58:25;97616.38;;;7.88;69.84
1694;BME280;71975;47.068;15.408;2024-03-08T09:03:30;97612.50;;;7.75;69.74
1694;BME280;71975;47.068;15.408;2024-03-08T09:08:33;97606.38;;;7.96;70.90
1694;BME280;71975;47.068;15.408;2024-03-08T09:13:36;97597.97;;;8.47;67.33
1694;BME280;71975;47.068;15.408;2024-03-08T09:18:40;97606.75;;;7.94;68.49
1694;BME280;71975;47.068;15.408;2024-03-08T09:23:44;97606.75;;;7.84;67.21
1694;BME280;71975;47.068;15.408;2024-03-08T09:28:47;97595.66;;;8.42;66.84
1694;BME280;71975;47.068;15.408;2024-03-08T09:33:51;97591.38;;;9.77;58.80
1694;BME280;71975;47.068;15.408;2024-03-08T09:38:54;97581.97;;;9.99;56.60
1694;BME280;71975;47.068;15.408;2024-03-08T09:43:57;97582.44;;;11.80;50.09
1694;BME280;71975;47.068;15.408;2024-03-08T09:49:03;97583.03;;;11.65;49.17
1694;BME280;71975;47.068;15.408;2024-03-08T09:54:07;97583.75;;;10.68;52.05
1694;BME280;71975;47.068;15.408;2024-03-08T09:59:20;97572.75;;;9.86;54.93
1694;BME280;71975;47.068;15.408;2024-03-08T10:04:46;97577.81;;;9.84;56.48
1694;BME280;71975;47.068;15.408;2024-03-08T10:09:51;97587.31;;;9.44;55.75
1694;BME280;71975;47.068;15.408;2024-03-08T10:14:55;97584.25;;;9.31;55.92
1694;BME280;71975;47.068;15.408;2024-03-08T10:20:00;97572.34;;;10.46;51.40
1694;BME280;71975;47.068;15.408;2024-03-08T10:25:05;97581.03;;;10.23;49.30
1694;BME280;71975;47.068;15.408;2024-03-08T10:30:10;97575.00;;;11.24;47.09
1694;BME280;71975;47.068;15.408;2024-03-08T10:35:17;97570.00;;;12.79;41.99
1694;BME280;71975;47.068;15.408;2024-03-08T10:40:20;97564.75;;;13.51;41.00
1694;BME280;71975;47.068;15.408;2024-03-08T10:45:30;97578.22;;;12.52;41.83
1694;BME280;71975;47.068;15.408;2024-03-08T10:50:35;97573.88;;;12.09;42.79
1694;BME280;71975;47.068;15.408;2024-03-08T10:55:39;97569.91;;;12.63;40.40
1694;BME280;71975;47.068;15.408;2024-03-08T11:00:43;97558.41;;;13.38;38.62
1694;BME280;71975;47.068;15.408;2024-03-08T11:05:47;97556.66;;;12.88;40.37
1694;BME280;71975;47.068;15.408;2024-03-08T11:10:52;97545.66;;;13.35;40.76
1694;BME280;71975;47.068;15.408;2024-03-08T11:15:57;97545.28;;;13.52;39.73
1694;BME280;71975;47.068;15.408;2024-03-08T11:21:04;97545.97;;;13.92;39.19
1694;BME280;71975;47.068;15.408;2024-03-08T11:26:17;97530.84;;;12.57;41.00
1694;BME280;71975;47.068;15.408;2024-03-08T11:31:25;97528.53;;;12.55;40.36
1694;BME280;71975;47.068;15.408;2024-03-08T11:36:34;97525.34;;;12.80;40.08
1694;BME280;71975;47.068;15.408;2024-03-08T11:41:39;97517.94;;;13.23;38.92
1694;BME280;71975;47.068;15.408;2024-03-08T11:46:43;97510.03;;;12.90;39.34
1694;BME280;71975;47.068;15.408;2024-03-08T11:51:52;97511.84;;;12.11;40.37
1694;BME280;71975;47.068;15.408;2024-03-08T11:56:56;97501.88;;;12.27;40.45
1694;BME280;71975;47.068;15.408;2024-03-08T12:02:03;97494.38;;;11.88;42.40
1694;BME280;71975;47.068;15.408;2024-03-08T12:07:09;97500.09;;;11.67;42.54
1694;BME280;71975;47.068;15.408;2024-03-08T12:12:14;97495.19;;;11.59;43.73
1694;BME280;71975;47.068;15.408;2024-03-08T12:17:17;97485.69;;;11.44;43.24
1694;BME280;71975;47.068;15.408;2024-03-08T12:22:26;97481.63;;;11.02;44.91
1694;BME280;71975;47.068;15.408;2024-03-08T12:27:28;97479.16;;;10.81;45.08
1694;BME280;71975;47.068;15.408;2024-03-08T12:32:31;97480.88;;;10.30;47.15
1694;BME280;71975;47.068;15.408;2024-03-08T12:37:36;97463.47;;;10.31;47.26
1694;BME280;71975;47.068;15.408;2024-03-08T12:42:39;97471.22;;;10.29;47.99
1694;BME280;71975;47.068;15.408;2024-03-08T12:47:42;97454.31;;;11.46;45.86
1694;BME280;71975;47.068;15.408;2024-03-08T12:52:47;97460.00;;;10.68;46.61
1694;BME280;71975;47.068;15.408;2024-03-08T12:57:54;97458.88;;;10.96;46.15
1694;BME280;71975;47.068;15.408;2024-03-08T13:02:57;97459.16;;;10.71;46.89
1694;BME280;71975;47.068;15.408;2024-03-08T13:08:02;97449.75;;;10.08;47.83
1694;BME280;71975;47.068;15.408;2024-03-08T13:13:05;97450.47;;;10.19;48.59
1694;BME280;71975;47.068;15.408;2024-03-08T13:18:08;97445.47;;;10.51;48.81
1694;BME280;71975;47.068;15.408;2024-03-08T13:23:13;97436.00;;;10.33;49.30
1694;BME280;71975;47.068;15.408;2024-03-08T13:28:16;97437.41;;;10.07;48.83
1694;BME280;71975;47.068;15.408;2024-03-08T13:33:25;97440.13;;;9.59;51.13
1694;BME280;71975;47.068;15.408;2024-03-08T13:38:30;97443.81;;;9.79;50.46
1694;BME280;71975;47.068;15.408;2024-03-08T13:43:34;97437.22;;;9.84;50.30
1694;BME280;71975;47.068;15.408;2024-03-08T13:48:38;97437.03;;;9.61;51.15
1694;BME280;71975;47.068;15.408;2024-03-08T13:53:44;97442.91;;;9.49;52.33
1694;BME280;71975;47.068;15.408;2024-03-08T13:58:47;97428.63;;;9.48;51.46
1694;BME280;71975;47.068;15.408;2024-03-08T14:03:53;97417.19;;;9.30;52.70
1694;BME280;71975;47.068;15.408;2024-03-08T14:08:57;97410.72;;;9.68;52.42
1694;BME280;71975;47.068;15.408;2024-03-08T14:14:00;97409.78;;;9.85;52.04
1694;BME280;71975;47.068;15.408;2024-03-08T14:19:03;97403.09;;;9.53;51.85
1694;BME280;71975;47.068;15.408;2024-03-08T14:24:08;97405.63;;;9.74;52.17
1694;BME280;71975;47.068;15.408;2024-03-08T14:29:11;97399.91;;;10.09;51.66
1694;BME280;71975;47.068;15.408;2024-03-08T14:34:14;97397.47;;;9.81;53.44
1694;BME280;71975;47.068;15.408;2024-03-08T14:39:20;97391.50;;;10.00;52.54
1694;BME280;71975;47.068;15.408;2024-03-08T14:44:23;97388.75;;;10.03;52.44
1694;BME280;71975;47.068;15.408;2024-03-08T14:49:27;97377.16;;;9.66;53.57
1694;BME280;71975;47.068;15.408;2024-03-08T14:54:32;97384.31;;;9.83;53.93
1694;BME280;71975;47.068;15.408;2024-03-08T14:59:35;97371.38;;;9.64;53.52
1694;BME280;71975;47.068;15.408;2024-03-08T15:04:39;97368.75;;;9.53;54.02
1694;BME280;71975;47.068;15.408;2024-03-08T15:09:44;97366.34;;;9.18;55.86
1694;BME280;71975;47.068;15.408;2024-03-08T15:14:47;97371.50;;;8.98;55.63
1694;BME280;71975;47.068;15.408;2024-03-08T15:19:52;97372.47;;;9.22;55.44
1694;BME280;71975;47.068;15.408;2024-03-08T15:24:57;97375.66;;;9.06;55.72
1694;BME280;71975;47.068;15.408;2024-03-08T15:30:01;97363.28;;;9.12;55.51
1694;BME280;71975;47.068;15.408;2024-03-08T15:35:04;97367.97;;;9.01;55.83
1694;BME280;71975;47.068;15.408;2024-03-08T15:40:10;97363.00;;;8.96;56.45
1694;BME280;71975;47.068;15.408;2024-03-08T15:45:22;97362.56;;;9.01;56.75
1694;BME280;71975;47.068;15.408;2024-03-08T15:50:26;97363.44;;;8.91;57.52
1694;BME280;71975;47.068;15.408;2024-03-08T15:55:30;97364.94;;;8.92;57.02
1694;BME280;71975;47.068;15.408;2024-03-08T16:00:34;97370.41;;;8.85;58.55
1694;BME280;71975;47.068;15.408;2024-03-08T16:05:38;97365.72;;;8.93;59.37
1694;BME280;71975;47.068;15.408;2024-03-08T16:10:45;97363.53;;;8.74;59.47
1694;BME280;71975;47.068;15.408;2024-03-08T16:15:52;97367.28;;;8.87;58.71
1694;BME280;71975;47.068;15.408;2024-03-08T16:20:56;97369.63;;;8.85;58.56
1694;BME280;71975;47.068;15.408;2024-03-08T16:26:01;97371.66;;;8.63;60.13
1694;BME280;71975;47.068;15.408;2024-03-08T16:31:04;97367.38;;;8.76;60.06
1694;BME280;71975;47.068;15.408;2024-03-08T16:36:09;97378.34;;;8.34;61.55
1694;BME280;71975;47.068;15.408;2024-03-08T16:41:16;97368.25;;;8.52;61.46
1694;BME280;71975;47.068;15.408;2024-03-08T16:46:20;97369.94;;;8.03;64.00
1694;BME280;71975;47.068;15.408;2024-03-08T16:51:23;97372.19;;;8.23;64.12
1694;BME280;71975;47.068;15.408;2024-03-08T16:56:28;97367.88;;;8.50;62.81
1694;BME280;71975;47.068;15.408;2024-03-08T17:01:32;97367.59;;;8.27;64.38
1694;BME280;71975;47.068;15.408;2024-03-08T17:06:35;97367.59;;;8.23;65.07
1694;BME280;71975;47.068;15.408;2024-03-08T17:11:40;97363.72;;;8.35;65.53
1694;BME280;71975;47.068;15.408;2024-03-08T17:16:43;97376.03;;;8.32;65.96
1694;BME280;71975;47.068;15.408;2024-03-08T17:21:46;97375.19;;;8.53;65.83
1694;BME280;71975;47.068;15.408;2024-03-08T17:26:52;97369.88;;;8.35;66.26
1694;BME280;71975;47.068;15.408;2024-03-08T17:31:55;97376.38;;;8.41;66.60
1694;BME280;71975;47.068;15.408;2024-03-08T17:36:58;97371.03;;;8.17;68.69
1694;BME280;71975;47.068;15.408;2024-03-08T17:42:03;97367.66;;;7.98;69.21
1694;BME280;71975;47.068;15.408;2024-03-08T17:47:07;97363.75;;;8.10;70.95
1694;BME280;71975;47.068;15.408;2024-03-08T17:52:10;97363.03;;;7.99;72.08
1694;BME280;71975;47.068;15.408;2024-03-08T17:57:15;97359.16;;;8.03;71.54
1694;BME280;71975;47.068;15.408;2024-03-08T18:02:19;97364.97;;;7.91;71.55
1694;BME280;71975;47.068;15.408;2024-03-08T18:07:22;97371.44;;;8.12;70.41
1694;BME280;71975;47.068;15.408;2024-03-08T18:12:27;97371.13;;;7.92;71.16
1694;BME280;71975;47.068;15.408;2024-03-08T18:17:31;97370.34;;;7.98;71.95
1694;BME280;71975;47.068;15.408;2024-03-08T18:22:35;97370.38;;;7.77;74.28
1694;BME280;71975;47.068;15.408;2024-03-08T18:27:40;97363.38;;;8.04;72.45
1694;BME280;71975;47.068;15.408;2024-03-08T18:32:43;97363.81;;;7.89;74.01
1694;BME280;71975;47.068;15.408;2024-03-08T18:37:48;97368.84;;;7.87;73.54
1694;BME280;71975;47.068;15.408;2024-03-08T18:42:54;97353.00;;;7.92;74.22
1694;BME280;71975;47.068;15.408;2024-03-08T18:47:58;97352.25;;;7.95;74.58
1694;BME280;71975;47.068;15.408;2024-03-08T18:53:01;97351.84;;;8.00;74.61
1694;BME280;71975;47.068;15.408;2024-03-08T18:58:06;97344.94;;;7.85;76.16
1694;BME280;71975;47.068;15.408;2024-03-08T19:03:11;97338.41;;;7.83;76.14
1694;BME280;71975;47.068;15.408;2024-03-08T19:08:15;97335.72;;;7.86;75.31
1694;BME280;71975;47.068;15.408;2024-03-08T19:13:20;97336.16;;;7.67;75.81
1694;BME280;71975;47.068;15.408;2024-03-08T19:18:23;97329.16;;;7.87;75.01
1694;BME280;71975;47.068;15.408;2024-03-08T19:23:28;97336.09;;;7.78;76.78
1694;BME280;71975;47.068;15.408;2024-03-08T19:28:37;97336.88;;;7.89;75.79
1694;BME280;71975;47.068;15.408;2024-03-08T19:33:41;97333.03;;;7.86;76.08
1694;BME280;71975;47.068;15.408;2024-03-08T19:38:44;97325.72;;;7.76;75.75
1694;BME280;71975;47.068;15.408;2024-03-08T19:43:49;97317.63;;;7.83;75.56
1694;BME280;71975;47.068;15.408;2024-03-08T19:48:52;97324.19;;;7.79;74.81
1694;BME280;71975;47.068;15.408;2024-03-08T19:53:58;97322.25;;;7.86;75.80
1694;BME280;71975;47.068;15.408;2024-03-08T19:59:03;97323.34;;;7.99;74.54
1694;BME280;71975;47.068;15.408;2024-03-08T20:04:07;97326.06;;;7.92;74.96
1694;BME280;71975;47.068;15.408;2024-03-08T20:09:10;97328.00;;;7.88;74.95
1694;BME280;71975;47.068;15.408;2024-03-08T20:14:15;97327.63;;;7.93;74.57
1694;BME280;71975;47.068;15.408;2024-03-08T20:19:19;97328.00;;;7.92;74.11
1694;BME280;71975;47.068;15.408;2024-03-08T20:24:23;97325.72;;;7.87;73.82
1694;BME280;71975;47.068;15.408;2024-03-08T20:29:27;97314.16;;;7.83;74.99
1694;BME280;71975;47.068;15.408;2024-03-08T20:34:32;97317.28;;;7.74;75.78
1694;BME280;71975;47.068;15.408;2024-03-08T20:39:36;97319.16;;;7.84;75.17
1694;BME280;71975;47.068;15.408;2024-03-08T20:44:40;97314.56;;;7.74;76.05
1694;BME280;71975;47.068;15.408;2024-03-08T20:49:43;97310.97;;;8.13;73.93
1694;BME280;71975;47.068;15.408;2024-03-08T20:54:49;97317.50;;;8.19;73.99
1694;BME280;71975;47.068;15.408;2024-03-08T20:59:53;97320.69;;;7.85;74.69
1694;BME280;71975;47.068;15.408;2024-03-08T21:04:56;97324.56;;;7.84;75.49
1694;BME280;71975;47.068;15.408;2024-03-08T21:10:00;97315.69;;;7.87;74.96
1694;BME280;71975;47.068;15.408;2024-03-08T21:15:05;97310.69;;;7.82;74.66
1694;BME280;71975;47.068;15.408;2024-03-08T21:20:10;97296.88;;;7.66;75.79
1694;BME280;71975;47.068;15.408;2024-03-08T21:25:14;97291.53;;;7.49;76.62
1694;BME280;71975;47.068;15.408;2024-03-08T21:30:19;97284.19;;;7.56;76.91
1694;BME280;71975;47.068;15.408;2024-03-08T21:35:23;97277.66;;;7.61;77.40
1694;BME280;71975;47.068;15.408;2024-03-08T21:40:26;97269.91;;;7.73;76.71
1694;BME280;71975;47.068;15.408;2024-03-08T21:45:34;97268.78;;;7.74;76.43
1694;BME280;71975;47.068;15.408;2024-03-08T21:50:38;97269.19;;;7.62;77.94
1694;BME280;71975;47.068;15.408;2024-03-08T21:55:41;97269.16;;;7.76;76.17
1694;BME280;71975;47.068;15.408;2024-03-08T22:00:45;97253.03;;;7.62;75.76
1694;BME280;71975;47.068;15.408;2024-03-08T22:05:52;97250.75;;;7.50;75.83
1694;BME280;71975;47.068;15.408;2024-03-08T22:10:55;97259.19;;;7.49;76.94
1694;BME280;71975;47.068;15.408;2024-03-08T22:16:00;97256.16;;;7.40;77.03
1694;BME280;71975;47.068;15.408;2024-03-08T22:21:05;97241.50;;;7.55;76.27
1694;BME280;71975;47.068;15.408;2024-03-08T22:26:15;97244.56;;;7.57;76.88
1694;BME280;71975;47.068;15.408;2024-03-08T22:31:23;97241.09;;;7.60;76.22
1694;BME280;71975;47.068;15.408;2024-03-08T22:36:27;97242.28;;;7.55;76.82
1694;BME280;71975;47.068;15.408;2024-03-08T22:41:32;97230.31;;;7.63;76.77
1694;BME280;71975;47.068;15.408;2024-03-08T22:46:39;97230.28;;;7.74;75.39
1694;BME280;71975;47.068;15.408;2024-03-08T22:51:43;97228.38;;;7.67;75.84
1694;BME280;71975;47.068;15.408;2024-03-08T22:56:45;97216.84;;;7.67;75.67
1694;BME280;71975;47.068;15.408;2024-03-08T23:01:50;97223.00;;;7.64;76.46
1694;BME280;71975;47.068;15.408;2024-03-08T23:06:54;97219.16;;;7.61;76.28
1694;BME280;71975;47.068;15.408;2024-03-08T23:11:57;97224.97;;;7.53;75.75
1694;BME280;71975;47.068;15.408;2024-03-08T23:17:02;97211.47;;;7.56;76.39
1694;BME280;71975;47.068;15.408;2024-03-08T23:22:08;97210.69;;;7.56;75.82
1694;BME280;71975;47.068;15.408;2024-03-08T23:27:13;97209.56;;;7.46;75.86
1694;BME280;71975;47.068;15.408;2024-03-08T23:32:17;97194.91;;;7.61;76.12
1694;BME280;71975;47.068;15.408;2024-03-08T23:37:21;97192.25;;;7.54;76.32
1694;BME280;71975;47.068;15.408;2024-03-08T23:42:24;97189.94;;;7.56;75.47
1694;BME280;71975;47.068;15.408;2024-03-08T23:47:28;97204.13;;;7.67;75.99
1694;BME280;71975;47.068;15.408;2024-03-08T23:52:32;97197.97;;;7.63;75.49
1694;BME280;71975;47.068;15.408;2024-03-08T23:57:36;97206.06;;;7.67;75.25
